sensor_id;sensor_type;location;lat;lon;timestamp;pressure;altitude;pressure_sealevel;temperature;humidity
68380;BME280;57711;53.196;19.638;2022-11-14T00:00:45;101454.08;;;11.04;73.82
68380;BME280;57711;53.196;19.638;2022-11-14T00:03:31;101452.02;;;11.05;73.99
68380;BME280;57711;53.196;19.638;2022-11-14T00:06:16;101454.03;;;11.07;73.99
68380;BME280;57711;53.196;19.638;2022-11-14T00:09:02;101456.09;;;11.08;73.93
68380;BME280;57711;53.196;19.638;2022-11-14T00:11:48;101453.98;;;11.08;74.05
68380;BME280;57711;53.196;19.638;2022-11-14T00:14:34;101453.35;;;11.06;73.98
68380;BME280;57711;53.196;19.638;2022-11-14T00:17:21;101451.01;;;11.06;73.99
68380;BME280;57711;53.196;19.638;2022-11-14T00:20:09;101457.08;;;11.02;73.73
68380;BME280;57711;53.196;19.638;2022-11-14T00:22:55;101456.80;;;10.99;74.03
68380;BME280;57711;53.196;19.638;2022-11-14T00:25:45;101453.02;;;10.95;73.78
68380;BME280;57711;53.196;19.638;2022-11-14T00:28:31;101452.37;;;10.92;73.66
68380;BME280;57711;53.196;19.638;2022-11-14T00:31:16;101451.97;;;10.88;73.54
68380;BME280;57711;53.196;19.638;2022-11-14T00:34:03;101445.96;;;10.88;73.72
68380;BME280;57711;53.196;19.638;2022-11-14T00:36:48;101443.63;;;10.88;73.68
68380;BME280;57711;53.196;19.638;2022-11-14T00:39:34;101440.96;;;10.87;73.74
68380;BME280;57711;53.196;19.638;2022-11-14T00:42:19;101440.74;;;10.85;73.56
68380;BME280;57711;53.196;19.638;2022-11-14T00:45:05;101438.58;;;10.80;73.75
68380;BME280;57711;53.196;19.638;2022-11-14T00:47:50;101433.66;;;10.73;73.67
68380;BME280;57711;53.196;19.638;2022-11-14T00:50:36;101428.52;;;10.69;73.56
68380;BME280;57711;53.196;19.638;2022-11-14T00:53:22;101435.35;;;10.64;73.71
68380;BME280;57711;53.196;19.638;2022-11-14T00:56:08;101432.08;;;10.65;73.56
68380;BME280;57711;53.196;19.638;2022-11-14T00:58:54;101431.31;;;10.65;73.64
68380;BME280;57711;53.196;19.638;2022-11-14T01:01:39;101426.16;;;10.66;73.50
68380;BME280;57711;53.196;19.638;2022-11-14T01:04:26;101419.65;;;10.69;73.59
68380;BME280;57711;53.196;19.638;2022-11-14T01:07:12;101414.63;;;10.71;73.49
68380;BME280;57711;53.196;19.638;2022-11-14T01:09:57;101417.15;;;10.71;73.64
68380;BME280;57711;53.196;19.638;2022-11-14T01:12:43;101413.15;;;10.69;73.60
68380;BME280;57711;53.196;19.638;2022-11-14T01:15:29;101403.80;;;10.65;73.67
68380;BME280;57711;53.196;19.638;2022-11-14T01:18:20;101403.92;;;10.66;73.71
68380;BME280;57711;53.196;19.638;2022-11-14T01:21:08;101402.70;;;10.68;73.53
68380;BME280;57711;53.196;19.638;2022-11-14T01:23:54;101398.39;;;10.70;73.50
68380;BME280;57711;53.196;19.638;2022-11-14T01:26:40;101398.41;;;10.70;73.32
68380;BME280;57711;53.196;19.638;2022-11-14T01:29:26;101393.80;;;10.69;73.29
68380;BME280;57711;53.196;19.638;2022-11-14T01:32:12;101388.35;;;10.66;73.65
68380;BME280;57711;53.196;19.638;2022-11-14T01:34:58;101383.72;;;10.63;73.63
68380;BME280;57711;53.196;19.638;2022-11-14T01:37:43;101382.87;;;10.59;73.38
68380;BME280;57711;53.196;19.638;2022-11-14T01:40:29;101376.75;;;10.59;73.66
68380;BME280;57711;53.196;19.638;2022-11-14T01:46:18;101372.73;;;10.62;73.53
68380;BME280;57711;53.196;19.638;2022-11-14T01:52:04;101361.77;;;10.59;73.37
68380;BME280;57711;53.196;19.638;2022-11-14T01:54:52;101357.00;;;10.57;73.36
68380;BME280;57711;53.196;19.638;2022-11-14T01:57:42;101355.73;;;10.54;73.51
68380;BME280;57711;53.196;19.638;2022-11-14T02:00:29;101352.15;;;10.51;73.44
68380;BME280;57711;53.196;19.638;2022-11-14T02:03:15;101355.73;;;10.47;73.40
68380;BME280;57711;53.196;19.638;2022-11-14T02:06:02;101357.11;;;10.45;73.36
68380;BME280;57711;53.196;19.638;2022-11-14T02:08:49;101354.95;;;10.48;73.44
68380;BME280;57711;53.196;19.638;2022-11-14T02:11:42;101355.88;;;10.47;73.23
68380;BME280;57711;53.196;19.638;2022-11-14T02:14:29;101354.05;;;10.45;73.45
68380;BME280;57711;53.196;19.638;2022-11-14T02:17:16;101351.95;;;10.44;73.37
68380;BME280;57711;53.196;19.638;2022-11-14T02:20:23;101352.27;;;10.45;73.23
68380;BME280;57711;53.196;19.638;2022-11-14T02:23:13;101351.14;;;10.41;73.40
68380;BME280;57711;53.196;19.638;2022-11-14T02:25:59;101355.36;;;10.34;73.25
68380;BME280;57711;53.196;19.638;2022-11-14T02:28:45;101351.79;;;10.34;73.18
68380;BME280;57711;53.196;19.638;2022-11-14T02:31:31;101347.02;;;10.32;73.21
68380;BME280;57711;53.196;19.638;2022-11-14T02:34:17;101345.84;;;10.33;73.13
68380;BME280;57711;53.196;19.638;2022-11-14T02:37:05;101341.16;;;10.33;73.35
68380;BME280;57711;53.196;19.638;2022-11-14T02:39:51;101341.81;;;10.32;73.32
68380;BME280;57711;53.196;19.638;2022-11-14T02:42:37;101339.36;;;10.33;73.45
68380;BME280;57711;53.196;19.638;2022-11-14T02:45:23;101341.44;;;10.32;73.20
68380;BME280;57711;53.196;19.638;2022-11-14T02:48:09;101334.00;;;10.21;73.10
68380;BME280;57711;53.196;19.638;2022-11-14T02:50:54;101330.25;;;10.18;73.18
68380;BME280;57711;53.196;19.638;2022-11-14T02:53:40;101325.82;;;10.17;73.09
68380;BME280;57711;53.196;19.638;2022-11-14T02:56:26;101323.55;;;10.10;73.13
68380;BME280;57711;53.196;19.638;2022-11-14T02:59:11;101322.06;;;10.09;73.04
68380;BME280;57711;53.196;19.638;2022-11-14T03:01:57;101318.98;;;10.07;73.19
68380;BME280;57711;53.196;19.638;2022-11-14T03:04:43;101318.98;;;10.01;73.30
68380;BME280;57711;53.196;19.638;2022-11-14T03:07:29;101318.30;;;9.98;73.27
68380;BME280;57711;53.196;19.638;2022-11-14T03:10:16;101318.11;;;9.98;73.14
68380;BME280;57711;53.196;19.638;2022-11-14T03:13:01;101312.17;;;9.97;73.07
68380;BME280;57711;53.196;19.638;2022-11-14T03:15:47;101314.32;;;9.98;73.00
68380;BME280;57711;53.196;19.638;2022-11-14T03:18:33;101313.23;;;9.98;73.06
68380;BME280;57711;53.196;19.638;2022-11-14T03:21:20;101307.91;;;9.99;73.02
68380;BME280;57711;53.196;19.638;2022-11-14T03:24:07;101303.48;;;10.03;73.06
68380;BME280;57711;53.196;19.638;2022-11-14T03:26:52;101303.86;;;10.03;72.94
68380;BME280;57711;53.196;19.638;2022-11-14T03:29:38;101298.39;;;9.99;72.97
68380;BME280;57711;53.196;19.638;2022-11-14T03:32:24;101302.73;;;9.98;73.00
68380;BME280;57711;53.196;19.638;2022-11-14T03:35:10;101304.35;;;9.98;73.11
68380;BME280;57711;53.196;19.638;2022-11-14T03:37:55;101303.16;;;10.03;73.31
68380;BME280;57711;53.196;19.638;2022-11-14T03:40:41;101301.35;;;10.05;73.07
68380;BME280;57711;53.196;19.638;2022-11-14T03:43:32;101297.88;;;10.06;73.06
68380;BME280;57711;53.196;19.638;2022-11-14T03:46:18;101299.92;;;10.08;72.98
68380;BME280;57711;53.196;19.638;2022-11-14T03:49:04;101298.75;;;9.98;72.84
68380;BME280;57711;53.196;19.638;2022-11-14T03:51:50;101299.70;;;9.90;72.86
68380;BME280;57711;53.196;19.638;2022-11-14T03:54:36;101298.02;;;9.88;73.22
68380;BME280;57711;53.196;19.638;2022-11-14T03:57:21;101298.13;;;9.87;73.15
68380;BME280;57711;53.196;19.638;2022-11-14T04:00:08;101296.30;;;9.90;73.00
68380;BME280;57711;53.196;19.638;2022-11-14T04:02:54;101296.71;;;9.94;73.01
68380;BME280;57711;53.196;19.638;2022-11-14T04:05:43;101291.94;;;9.95;72.94
68380;BME280;57711;53.196;19.638;2022-11-14T04:08:30;101282.91;;;9.95;72.77
68380;BME280;57711;53.196;19.638;2022-11-14T04:11:16;101285.18;;;9.96;73.05
68380;BME280;57711;53.196;19.638;2022-11-14T04:14:02;101285.69;;;9.94;72.79
68380;BME280;57711;53.196;19.638;2022-11-14T04:16:48;101281.79;;;9.85;72.72
68380;BME280;57711;53.196;19.638;2022-11-14T04:19:33;101276.38;;;9.80;72.76
68380;BME280;57711;53.196;19.638;2022-11-14T04:22:19;101272.65;;;9.82;73.11
68380;BME280;57711;53.196;19.638;2022-11-14T04:25:06;101272.56;;;9.86;73.01
68380;BME280;57711;53.196;19.638;2022-11-14T04:27:53;101271.49;;;9.86;72.86
68380;BME280;57711;53.196;19.638;2022-11-14T04:30:39;101265.60;;;9.85;72.67
68380;BME280;57711;53.196;19.638;2022-11-14T04:33:25;101265.16;;;9.83;72.79
68380;BME280;57711;53.196;19.638;2022-11-14T04:36:11;101262.36;;;9.84;73.03
68380;BME280;57711;53.196;19.638;2022-11-14T04:38:56;101262.84;;;9.85;72.92
68380;BME280;57711;53.196;19.638;2022-11-14T04:41:42;101254.39;;;9.79;72.83
68380;BME280;57711;53.196;19.638;2022-11-14T04:44:28;101255.20;;;9.75;72.74
68380;BME280;57711;53.196;19.638;2022-11-14T04:47:14;101246.84;;;9.69;72.73
68380;BME280;57711;53.196;19.638;2022-11-14T04:49:59;101246.57;;;9.62;72.48
68380;BME280;57711;53.196;19.638;2022-11-14T04:52:45;101242.31;;;9.58;72.80
68380;BME280;57711;53.196;19.638;2022-11-14T04:55:31;101237.78;;;9.53;72.66
68380;BME280;57711;53.196;19.638;2022-11-14T04:58:16;101242.57;;;9.54;72.68
68380;BME280;57711;53.196;19.638;2022-11-14T05:01:09;101238.89;;;9.55;72.75
68380;BME280;57711;53.196;19.638;2022-11-14T05:03:55;101239.55;;;9.59;72.89
68380;BME280;57711;53.196;19.638;2022-11-14T05:06:41;101234.69;;;9.61;72.74
68380;BME280;57711;53.196;19.638;2022-11-14T05:09:27;101232.05;;;9.60;72.65
68380;BME280;57711;53.196;19.638;2022-11-14T05:12:13;101236.23;;;9.60;72.65
68380;BME280;57711;53.196;19.638;2022-11-14T05:14:59;101229.29;;;9.58;72.75
68380;BME280;57711;53.196;19.638;2022-11-14T05:17:45;101227.89;;;9.55;72.55
68380;BME280;57711;53.196;19.638;2022-11-14T05:20:30;101221.30;;;9.59;72.69
68380;BME280;57711;53.196;19.638;2022-11-14T05:23:19;101222.89;;;9.65;72.65
68380;BME280;57711;53.196;19.638;2022-11-14T05:26:10;101224.02;;;9.69;72.75
68380;BME280;57711;53.196;19.638;2022-11-14T05:28:56;101224.97;;;9.66;72.46
68380;BME280;57711;53.196;19.638;2022-11-14T05:31:42;101226.73;;;9.59;72.56
68380;BME280;57711;53.196;19.638;2022-11-14T05:34:27;101224.74;;;9.56;72.45
68380;BME280;57711;53.196;19.638;2022-11-14T05:37:13;101226.91;;;9.54;72.57
68380;BME280;57711;53.196;19.638;2022-11-14T05:39:59;101225.60;;;9.54;72.82
68380;BME280;57711;53.196;19.638;2022-11-14T05:42:45;101226.27;;;9.53;72.63
68380;BME280;57711;53.196;19.638;2022-11-14T05:45:30;101227.66;;;9.53;72.90
68380;BME280;57711;53.196;19.638;2022-11-14T05:48:16;101224.70;;;9.52;72.51
68380;BME280;57711;53.196;19.638;2022-11-14T05:51:03;101220.55;;;9.52;72.55
68380;BME280;57711;53.196;19.638;2022-11-14T05:53:50;101222.05;;;9.51;72.41
68380;BME280;57711;53.196;19.638;2022-11-14T05:56:35;101224.70;;;9.52;72.73
68380;BME280;57711;53.196;19.638;2022-11-14T05:59:21;101230.91;;;9.48;72.47
68380;BME280;57711;53.196;19.638;2022-11-14T06:02:07;101230.75;;;9.45;72.50
68380;BME280;57711;53.196;19.638;2022-11-14T06:04:53;101226.86;;;9.41;72.56
68380;BME280;57711;53.196;19.638;2022-11-14T06:07:39;101232.89;;;9.43;72.50
68380;BME280;57711;53.196;19.638;2022-11-14T06:10:25;101233.40;;;9.46;72.61
68380;BME280;57711;53.196;19.638;2022-11-14T06:13:11;101232.19;;;9.48;72.43
68380;BME280;57711;53.196;19.638;2022-11-14T06:16:00;101233.48;;;9.50;72.39
68380;BME280;57711;53.196;19.638;2022-11-14T06:18:47;101235.27;;;9.50;72.47
68380;BME280;57711;53.196;19.638;2022-11-14T06:21:32;101242.13;;;9.50;72.53
68380;BME280;57711;53.196;19.638;2022-11-14T06:24:18;101243.63;;;9.50;72.45
68380;BME280;57711;53.196;19.638;2022-11-14T06:27:03;101244.88;;;9.47;72.40
68380;BME280;57711;53.196;19.638;2022-11-14T06:29:49;101247.11;;;9.46;72.39
68380;BME280;57711;53.196;19.638;2022-11-14T06:32:34;101247.63;;;9.44;72.24
68380;BME280;57711;53.196;19.638;2022-11-14T06:35:20;101248.21;;;9.40;72.16
68380;BME280;57711;53.196;19.638;2022-11-14T06:38:05;101246.11;;;9.37;72.29
68380;BME280;57711;53.196;19.638;2022-11-14T06:40:51;101252.83;;;9.36;72.28
68380;BME280;57711;53.196;19.638;2022-11-14T06:43:40;101249.80;;;9.28;72.14
68380;BME280;57711;53.196;19.638;2022-11-14T06:46:26;101251.58;;;9.28;72.26
68380;BME280;57711;53.196;19.638;2022-11-14T06:49:12;101251.97;;;9.30;72.28
68380;BME280;57711;53.196;19.638;2022-11-14T06:51:58;101252.42;;;9.34;72.28
68380;BME280;57711;53.196;19.638;2022-11-14T06:54:43;101251.18;;;9.34;72.32
68380;BME280;57711;53.196;19.638;2022-11-14T06:57:29;101247.39;;;9.37;72.38
68380;BME280;57711;53.196;19.638;2022-11-14T07:00:15;101247.75;;;9.36;72.49
68380;BME280;57711;53.196;19.638;2022-11-14T07:03:01;101249.30;;;9.35;72.41
68380;BME280;57711;53.196;19.638;2022-11-14T07:05:46;101249.27;;;9.33;72.16
68380;BME280;57711;53.196;19.638;2022-11-14T07:08:33;101244.83;;;9.32;72.17
68380;BME280;57711;53.196;19.638;2022-11-14T07:11:21;101245.79;;;9.36;72.39
68380;BME280;57711;53.196;19.638;2022-11-14T07:14:07;101247.70;;;9.37;72.26
68380;BME280;57711;53.196;19.638;2022-11-14T07:16:53;101250.13;;;9.31;72.10
68380;BME280;57711;53.196;19.638;2022-11-14T07:19:39;101244.50;;;9.29;72.29
68380;BME280;57711;53.196;19.638;2022-11-14T07:22:24;101244.81;;;9.29;72.24
68380;BME280;57711;53.196;19.638;2022-11-14T07:25:10;101242.35;;;9.31;72.10
68380;BME280;57711;53.196;19.638;2022-11-14T07:27:56;101242.84;;;9.32;72.31
68380;BME280;57711;53.196;19.638;2022-11-14T07:30:42;101243.33;;;9.30;72.09
68380;BME280;57711;53.196;19.638;2022-11-14T07:33:28;101235.27;;;9.27;72.08
68380;BME280;57711;53.196;19.638;2022-11-14T07:36:15;101233.49;;;9.21;72.07
68380;BME280;57711;53.196;19.638;2022-11-14T07:39:01;101237.31;;;9.20;72.49
68380;BME280;57711;53.196;19.638;2022-11-14T07:41:47;101239.70;;;9.22;72.40
68380;BME280;57711;53.196;19.638;2022-11-14T07:44:32;101238.86;;;9.27;72.45
68380;BME280;57711;53.196;19.638;2022-11-14T07:47:18;101241.20;;;9.30;72.29
68380;BME280;57711;53.196;19.638;2022-11-14T07:50:03;101238.36;;;9.31;72.44
68380;BME280;57711;53.196;19.638;2022-11-14T07:52:53;101235.58;;;9.35;72.25
68380;BME280;57711;53.196;19.638;2022-11-14T07:55:39;101234.48;;;9.36;72.05
68380;BME280;57711;53.196;19.638;2022-11-14T07:58:25;101232.06;;;9.31;72.17
68380;BME280;57711;53.196;19.638;2022-11-14T08:01:12;101230.66;;;9.31;72.24
68380;BME280;57711;53.196;19.638;2022-11-14T08:03:58;101231.09;;;9.27;72.27
68380;BME280;57711;53.196;19.638;2022-11-14T08:06:44;101227.92;;;9.31;72.24
68380;BME280;57711;53.196;19.638;2022-11-14T08:09:30;101224.35;;;9.33;72.26
68380;BME280;57711;53.196;19.638;2022-11-14T08:12:16;101226.20;;;9.35;72.12
68380;BME280;57711;53.196;19.638;2022-11-14T08:15:01;101225.36;;;9.39;72.26
68380;BME280;57711;53.196;19.638;2022-11-14T08:17:47;101222.17;;;9.38;72.22
68380;BME280;57711;53.196;19.638;2022-11-14T08:20:32;101216.50;;;9.34;72.00
68380;BME280;57711;53.196;19.638;2022-11-14T08:23:18;101207.10;;;9.32;72.24
68380;BME280;57711;53.196;19.638;2022-11-14T08:26:03;101205.13;;;9.32;72.13
68380;BME280;57711;53.196;19.638;2022-11-14T08:28:52;101207.30;;;9.31;72.16
68380;BME280;57711;53.196;19.638;2022-11-14T08:31:38;101208.77;;;9.34;72.23
68380;BME280;57711;53.196;19.638;2022-11-14T08:34:24;101207.11;;;9.40;72.31
68380;BME280;57711;53.196;19.638;2022-11-14T08:37:09;101206.61;;;9.47;72.08
68380;BME280;57711;53.196;19.638;2022-11-14T08:39:55;101209.99;;;9.45;72.11
68380;BME280;57711;53.196;19.638;2022-11-14T08:42:40;101206.70;;;9.46;72.20
68380;BME280;57711;53.196;19.638;2022-11-14T08:45:27;101207.84;;;9.39;71.94
68380;BME280;57711;53.196;19.638;2022-11-14T08:48:14;101210.06;;;9.31;71.90
68380;BME280;57711;53.196;19.638;2022-11-14T08:51:05;101203.29;;;9.27;71.82
68380;BME280;57711;53.196;19.638;2022-11-14T08:53:51;101201.84;;;9.30;71.89
68380;BME280;57711;53.196;19.638;2022-11-14T08:56:37;101202.84;;;9.31;72.11
68380;BME280;57711;53.196;19.638;2022-11-14T08:59:22;101205.43;;;9.28;72.01
68380;BME280;57711;53.196;19.638;2022-11-14T09:02:09;101199.42;;;9.23;71.88
68380;BME280;57711;53.196;19.638;2022-11-14T09:04:55;101198.18;;;9.22;72.23
68380;BME280;57711;53.196;19.638;2022-11-14T09:07:41;101197.60;;;9.26;72.21
68380;BME280;57711;53.196;19.638;2022-11-14T09:10:27;101198.27;;;9.30;71.79
68380;BME280;57711;53.196;19.638;2022-11-14T09:13:13;101193.73;;;9.30;71.98
68380;BME280;57711;53.196;19.638;2022-11-14T09:15:59;101191.25;;;9.29;71.86
68380;BME280;57711;53.196;19.638;2022-11-14T09:18:44;101195.05;;;9.29;72.24
68380;BME280;57711;53.196;19.638;2022-11-14T09:21:30;101186.61;;;9.31;72.05
68380;BME280;57711;53.196;19.638;2022-11-14T09:24:16;101178.89;;;9.38;72.30
68380;BME280;57711;53.196;19.638;2022-11-14T09:27:02;101174.31;;;9.47;72.24
68380;BME280;57711;53.196;19.638;2022-11-14T09:29:48;101169.39;;;9.53;72.05
68380;BME280;57711;53.196;19.638;2022-11-14T09:32:33;101168.83;;;9.56;72.01
68380;BME280;57711;53.196;19.638;2022-11-14T09:35:19;101171.70;;;9.58;72.09
68380;BME280;57711;53.196;19.638;2022-11-14T09:38:07;101169.27;;;9.62;72.10
68380;BME280;57711;53.196;19.638;2022-11-14T09:41:03;101164.83;;;9.61;71.94
68380;BME280;57711;53.196;19.638;2022-11-14T09:44:19;101166.77;;;9.59;71.78
68380;BME280;57711;53.196;19.638;2022-11-14T09:47:14;101167.88;;;9.61;72.00
68380;BME280;57711;53.196;19.638;2022-11-14T09:50:13;101168.14;;;9.65;71.90
68380;BME280;57711;53.196;19.638;2022-11-14T09:56:11;101170.02;;;9.59;71.67
68380;BME280;57711;53.196;19.638;2022-11-14T09:58:58;101172.46;;;9.50;71.92
68380;BME280;57711;53.196;19.638;2022-11-14T10:04:55;101158.52;;;9.42;71.89
68380;BME280;57711;53.196;19.638;2022-11-14T10:08:08;101159.46;;;9.50;71.81
68380;BME280;57711;53.196;19.638;2022-11-14T10:11:09;101152.36;;;9.51;71.79
68380;BME280;57711;53.196;19.638;2022-11-14T10:20:12;101146.90;;;9.52;71.87
68380;BME280;57711;53.196;19.638;2022-11-14T10:23:58;101142.52;;;9.52;71.88
68380;BME280;57711;53.196;19.638;2022-11-14T10:26:37;101136.01;;;9.58;71.82
68380;BME280;57711;53.196;19.638;2022-11-14T10:35:51;101122.66;;;9.70;71.77
68380;BME280;57711;53.196;19.638;2022-11-14T10:38:47;101121.45;;;9.69;71.71
68380;BME280;57711;53.196;19.638;2022-11-14T10:41:35;101117.21;;;9.68;71.82
68380;BME280;57711;53.196;19.638;2022-11-14T10:44:50;101117.11;;;9.69;71.60
68380;BME280;57711;53.196;19.638;2022-11-14T10:47:40;101112.82;;;9.69;71.45
68380;BME280;57711;53.196;19.638;2022-11-14T10:50:36;101109.13;;;9.65;71.46
68380;BME280;57711;53.196;19.638;2022-11-14T10:53:41;101102.98;;;9.62;71.60
68380;BME280;57711;53.196;19.638;2022-11-14T10:56:28;101095.89;;;9.60;71.68
68380;BME280;57711;53.196;19.638;2022-11-14T10:59:14;101088.15;;;9.62;71.49
68380;BME280;57711;53.196;19.638;2022-11-14T11:01:59;101087.03;;;9.66;71.56
68380;BME280;57711;53.196;19.638;2022-11-14T11:04:45;101087.70;;;9.69;71.66
68380;BME280;57711;53.196;19.638;2022-11-14T11:07:31;101084.14;;;9.73;71.66
68380;BME280;57711;53.196;19.638;2022-11-14T11:11:11;101084.00;;;9.73;71.50
68380;BME280;57711;53.196;19.638;2022-11-14T11:14:17;101076.00;;;9.66;71.52
68380;BME280;57711;53.196;19.638;2022-11-14T11:26:01;101060.95;;;9.72;71.59
68380;BME280;57711;53.196;19.638;2022-11-14T11:29:14;101054.71;;;9.75;71.54
68380;BME280;57711;53.196;19.638;2022-11-14T11:32:01;101052.10;;;9.79;71.58
68380;BME280;57711;53.196;19.638;2022-11-14T11:34:47;101053.79;;;9.81;71.51
68380;BME280;57711;53.196;19.638;2022-11-14T11:40:28;101051.16;;;9.77;71.35
68380;BME280;57711;53.196;19.638;2022-11-14T11:49:27;101039.27;;;9.82;71.72
68380;BME280;57711;53.196;19.638;2022-11-14T11:52:40;101034.23;;;9.87;71.69
68380;BME280;57711;53.196;19.638;2022-11-14T11:55:41;101031.99;;;9.95;71.59
68380;BME280;57711;53.196;19.638;2022-11-14T11:58:46;101029.34;;;9.96;71.33
68380;BME280;57711;53.196;19.638;2022-11-14T12:01:34;101031.69;;;9.99;71.57
68380;BME280;57711;53.196;19.638;2022-11-14T12:04:20;101038.39;;;9.96;71.48
68380;BME280;57711;53.196;19.638;2022-11-14T12:07:28;101033.73;;;9.91;71.46
68380;BME280;57711;53.196;19.638;2022-11-14T12:10:20;101032.75;;;9.87;71.48
68380;BME280;57711;53.196;19.638;2022-11-14T12:16:18;101050.20;;;9.86;71.27
68380;BME280;57711;53.196;19.638;2022-11-14T12:29:40;101034.52;;;9.70;71.48
68380;BME280;57711;53.196;19.638;2022-11-14T12:32:38;101032.77;;;9.67;71.30
68380;BME280;57711;53.196;19.638;2022-11-14T12:35:29;101029.53;;;9.67;71.51
68380;BME280;57711;53.196;19.638;2022-11-14T12:38:17;101023.09;;;9.71;71.24
68380;BME280;57711;53.196;19.638;2022-11-14T12:41:04;101017.88;;;9.76;71.46
68380;BME280;57711;53.196;19.638;2022-11-14T12:43:52;101013.33;;;9.81;71.25
68380;BME280;57711;53.196;19.638;2022-11-14T12:58:26;101008.64;;;9.68;71.43
68380;BME280;57711;53.196;19.638;2022-11-14T13:04:34;101005.27;;;9.77;71.34
68380;BME280;57711;53.196;19.638;2022-11-14T13:07:38;101010.52;;;9.70;70.90
68380;BME280;57711;53.196;19.638;2022-11-14T13:10:30;101010.09;;;9.61;71.16
68380;BME280;57711;53.196;19.638;2022-11-14T13:13:16;101006.59;;;9.57;71.19
68380;BME280;57711;53.196;19.638;2022-11-14T13:16:25;100999.73;;;9.52;71.40
68380;BME280;57711;53.196;19.638;2022-11-14T13:19:33;100996.13;;;9.52;71.16
68380;BME280;57711;53.196;19.638;2022-11-14T13:22:43;100988.73;;;9.49;71.08
68380;BME280;57711;53.196;19.638;2022-11-14T13:25:29;100984.20;;;9.50;71.16
68380;BME280;57711;53.196;19.638;2022-11-14T13:29:01;100984.86;;;9.51;71.27
68380;BME280;57711;53.196;19.638;2022-11-14T13:31:42;100983.04;;;9.49;71.42
68380;BME280;57711;53.196;19.638;2022-11-14T13:34:42;100976.52;;;9.46;71.19
68380;BME280;57711;53.196;19.638;2022-11-14T13:37:52;100978.39;;;9.45;71.44
68380;BME280;57711;53.196;19.638;2022-11-14T13:41:05;100978.78;;;9.47;71.33
68380;BME280;57711;53.196;19.638;2022-11-14T13:52:36;100972.98;;;9.42;71.19
68380;BME280;57711;53.196;19.638;2022-11-14T13:55:45;100967.96;;;9.42;71.24
68380;BME280;57711;53.196;19.638;2022-11-14T14:04:39;100959.73;;;9.46;71.25
68380;BME280;57711;53.196;19.638;2022-11-14T14:16:39;100952.52;;;9.36;71.23
68380;BME280;57711;53.196;19.638;2022-11-14T14:22:37;100940.98;;;9.34;71.09
68380;BME280;57711;53.196;19.638;2022-11-14T14:25:40;100935.31;;;9.34;71.04
68380;BME280;57711;53.196;19.638;2022-11-14T14:28:50;100929.49;;;9.35;70.96
68380;BME280;57711;53.196;19.638;2022-11-14T14:31:41;100924.23;;;9.33;71.10
68380;BME280;57711;53.196;19.638;2022-11-14T14:34:28;100914.90;;;9.35;71.14
68380;BME280;57711;53.196;19.638;2022-11-14T14:37:23;100911.34;;;9.36;71.36
68380;BME280;57711;53.196;19.638;2022-11-14T14:40:28;100910.73;;;9.40;71.19
68380;BME280;57711;53.196;19.638;2022-11-14T14:43:29;100909.44;;;9.40;71.14
68380;BME280;57711;53.196;19.638;2022-11-14T14:46:25;100911.04;;;9.38;71.12
68380;BME280;57711;53.196;19.638;2022-11-14T14:49:18;100908.21;;;9.40;70.98
68380;BME280;57711;53.196;19.638;2022-11-14T14:52:30;100905.72;;;9.42;71.12
68380;BME280;57711;53.196;19.638;2022-11-14T14:55:22;100899.73;;;9.42;71.06
68380;BME280;57711;53.196;19.638;2022-11-14T14:58:34;100898.49;;;9.41;71.02
68380;BME280;57711;53.196;19.638;2022-11-14T15:01:30;100906.20;;;9.42;71.06
68380;BME280;57711;53.196;19.638;2022-11-14T15:04:19;100913.82;;;9.32;70.88
68380;BME280;57711;53.196;19.638;2022-11-14T15:07:17;100904.30;;;9.27;70.97
68380;BME280;57711;53.196;19.638;2022-11-14T15:10:05;100900.58;;;9.26;70.83
68380;BME280;57711;53.196;19.638;2022-11-14T15:12:55;100897.52;;;9.26;70.97
68380;BME280;57711;53.196;19.638;2022-11-14T15:15:42;100900.59;;;9.26;70.88
68380;BME280;57711;53.196;19.638;2022-11-14T15:18:30;100901.16;;;9.23;70.83
68380;BME280;57711;53.196;19.638;2022-11-14T15:24:19;100892.32;;;9.10;70.90
68380;BME280;57711;53.196;19.638;2022-11-14T15:27:14;100887.05;;;9.06;70.81
68380;BME280;57711;53.196;19.638;2022-11-14T15:30:02;100885.13;;;9.00;70.80
68380;BME280;57711;53.196;19.638;2022-11-14T15:32:54;100880.60;;;8.95;70.97
68380;BME280;57711;53.196;19.638;2022-11-14T15:35:41;100878.15;;;8.94;71.02
68380;BME280;57711;53.196;19.638;2022-11-14T15:38:27;100879.68;;;8.95;71.11
68380;BME280;57711;53.196;19.638;2022-11-14T15:41:31;100886.44;;;8.90;70.98
68380;BME280;57711;53.196;19.638;2022-11-14T15:44:31;100885.69;;;8.80;70.76
68380;BME280;57711;53.196;19.638;2022-11-14T15:53:00;100876.75;;;8.79;71.09
68380;BME280;57711;53.196;19.638;2022-11-14T15:55:47;100875.98;;;8.79;70.99
68380;BME280;57711;53.196;19.638;2022-11-14T15:58:32;100880.89;;;8.79;70.91
68380;BME280;57711;53.196;19.638;2022-11-14T16:01:22;100881.30;;;8.78;70.95
68380;BME280;57711;53.196;19.638;2022-11-14T16:04:29;100880.52;;;8.72;70.90
68380;BME280;57711;53.196;19.638;2022-11-14T16:07:18;100877.33;;;8.65;70.83
68380;BME280;57711;53.196;19.638;2022-11-14T16:10:13;100873.25;;;8.62;70.93
68380;BME280;57711;53.196;19.638;2022-11-14T16:12:59;100867.27;;;8.65;71.04
68380;BME280;57711;53.196;19.638;2022-11-14T16:15:44;100863.84;;;8.68;71.19
68380;BME280;57711;53.196;19.638;2022-11-14T16:18:30;100860.33;;;8.66;71.09
68380;BME280;57711;53.196;19.638;2022-11-14T16:21:17;100858.77;;;8.70;71.34
68380;BME280;57711;53.196;19.638;2022-11-14T16:24:03;100858.88;;;8.74;70.92
68380;BME280;57711;53.196;19.638;2022-11-14T16:26:49;100858.07;;;8.73;71.08
68380;BME280;57711;53.196;19.638;2022-11-14T16:29:35;100860.20;;;8.73;71.09